createdAt,value
2018-07-16T00:00:46.307Z,1.60
2018-07-16T00:03:16.128Z,1.93
2018-07-16T00:05:45.885Z,1.80
2018-07-16T00:08:15.672Z,1.90
2018-07-16T00:10:45.403Z,1.80
2018-07-16T00:13:15.250Z,1.77
2018-07-16T00:15:45.062Z,2.20
2018-07-16T00:18:15.018Z,2.03
2018-07-16T00:20:44.769Z,1.93
2018-07-16T00:23:14.602Z,1.90
2018-07-16T00:25:44.393Z,2.00
2018-07-16T00:28:14.122Z,1.63
2018-07-16T00:30:43.878Z,1.97
2018-07-16T00:33:13.852Z,1.60
2018-07-16T00:35:43.626Z,2.10
2018-07-16T00:38:13.392Z,1.80
2018-07-16T00:40:43.165Z,1.60
2018-07-16T00:43:12.871Z,1.70
2018-07-16T00:45:42.686Z,1.80
2018-07-16T00:48:12.438Z,1.70
2018-07-16T00:50:42.161Z,1.87
2018-07-16T00:53:11.933Z,1.90
2018-07-16T00:55:41.774Z,1.50
2018-07-16T00:58:11.466Z,1.90
2018-07-16T01:00:41.214Z,1.77
2018-07-16T01:03:11.049Z,1.87
2018-07-16T01:05:40.768Z,1.50
2018-07-16T01:08:10.496Z,1.80
2018-07-16T01:10:40.329Z,1.80
2018-07-16T01:13:10.464Z,2.10
2018-07-16T01:15:40.237Z,1.80
2018-07-16T01:18:10.113Z,1.80
2018-07-16T01:20:39.933Z,2.03
2018-07-16T01:23:09.866Z,2.10
2018-07-16T01:25:39.804Z,1.87
2018-07-16T01:28:09.458Z,1.70
2018-07-16T01:30:39.293Z,1.53
2018-07-16T01:33:09.110Z,1.80
2018-07-16T01:35:38.870Z,1.97
2018-07-16T01:38:08.774Z,2.03
2018-07-16T01:40:38.643Z,2.13
2018-07-16T01:43:08.607Z,1.70
2018-07-16T01:45:38.337Z,1.60
2018-07-16T01:48:08.148Z,2.07
2018-07-16T01:50:38.017Z,1.77
2018-07-16T01:53:08.065Z,2.00
2018-07-16T01:55:37.922Z,2.00
2018-07-16T01:58:07.777Z,2.10
2018-07-16T02:00:55.884Z,1.83
2018-07-16T02:03:29.893Z,2.00
2018-07-16T02:05:59.626Z,2.10
2018-07-16T02:08:29.683Z,1.80
2018-07-16T02:10:59.714Z,2.23
2018-07-16T02:13:30.554Z,2.00
2018-07-16T02:16:00.250Z,2.10
2018-07-16T02:18:30.151Z,1.80
2018-07-16T02:20:59.881Z,1.97
2018-07-16T02:23:29.679Z,2.13
2018-07-16T02:25:59.440Z,1.80
2018-07-16T02:28:29.340Z,2.00
2018-07-16T02:30:59.088Z,2.07
2018-07-16T02:33:29.037Z,2.30
2018-07-16T02:35:58.731Z,2.30
2018-07-16T02:38:28.802Z,2.27
2018-07-16T02:40:58.630Z,2.13
2018-07-16T02:43:28.562Z,2.20
2018-07-16T02:45:58.324Z,2.00
2018-07-16T02:48:28.110Z,2.50
2018-07-16T02:50:57.998Z,2.40
2018-07-16T02:53:27.869Z,2.20
2018-07-16T02:55:57.637Z,2.20
2018-07-16T02:58:27.549Z,2.40
2018-07-16T03:00:57.509Z,2.20
2018-07-16T03:03:27.491Z,2.40
2018-07-16T03:05:57.241Z,2.43
2018-07-16T03:08:27.080Z,2.20
2018-07-16T03:10:56.945Z,2.23
2018-07-16T03:13:26.829Z,2.20
2018-07-16T03:15:56.234Z,2.33
2018-07-16T03:18:26.080Z,2.60
2018-07-16T03:20:55.828Z,2.47
2018-07-16T03:23:25.659Z,2.43
2018-07-16T03:25:55.371Z,2.50
2018-07-16T03:28:25.158Z,2.63
2018-07-16T03:30:55.001Z,2.67
2018-07-16T03:33:24.982Z,2.70
2018-07-16T03:35:54.665Z,2.50
2018-07-16T03:38:24.509Z,2.50
2018-07-16T03:40:54.450Z,2.50
2018-07-16T03:43:24.251Z,2.50
2018-07-16T03:45:54.021Z,2.40
2018-07-16T03:48:23.736Z,2.60
2018-07-16T03:50:53.593Z,2.70
2018-07-16T03:53:23.490Z,2.97
2018-07-16T03:55:53.435Z,3.17
2018-07-16T03:58:23.275Z,2.80
2018-07-16T04:00:53.036Z,2.70
2018-07-16T04:03:22.835Z,2.83
2018-07-16T04:05:52.818Z,2.80
2018-07-16T04:08:22.793Z,2.83
2018-07-16T04:10:52.546Z,3.30
2018-07-16T04:13:22.494Z,3.40
2018-07-16T04:15:52.308Z,2.80
2018-07-16T04:18:22.059Z,3.07
2018-07-16T04:20:52.033Z,3.40
2018-07-16T04:23:21.842Z,2.90
2018-07-16T04:25:51.592Z,3.23
2018-07-16T04:28:21.383Z,3.03
2018-07-16T04:30:51.256Z,3.30
2018-07-16T04:33:21.203Z,3.30
2018-07-16T04:35:51.128Z,3.50
2018-07-16T04:38:20.967Z,3.50
2018-07-16T04:40:50.888Z,2.90
2018-07-16T04:43:20.606Z,3.13
2018-07-16T04:45:50.944Z,3.23
2018-07-16T04:48:20.713Z,3.47
2018-07-16T04:50:49.380Z,2.97
2018-07-16T04:53:19.181Z,3.13
2018-07-16T04:55:48.949Z,3.97
2018-07-16T04:58:18.837Z,3.17
2018-07-16T05:00:49.557Z,3.10
2018-07-16T05:03:19.501Z,3.23
2018-07-16T05:05:49.205Z,3.60
2018-07-16T05:08:18.922Z,3.57
2018-07-16T05:10:48.641Z,4.00
2018-07-16T05:13:18.402Z,3.57
2018-07-16T05:15:48.100Z,3.20
2018-07-16T05:18:18.011Z,3.80
2018-07-16T05:20:47.856Z,3.73
2018-07-16T05:23:17.634Z,3.87
2018-07-16T05:25:47.681Z,3.20
2018-07-16T05:28:17.570Z,3.53
2018-07-16T05:30:47.294Z,3.63
2018-07-16T05:33:17.114Z,3.43
2018-07-16T05:35:46.868Z,4.13
2018-07-16T05:38:16.887Z,3.80
2018-07-16T05:40:46.504Z,3.70
2018-07-16T05:43:16.310Z,4.60
2018-07-16T05:45:47.221Z,4.07
2018-07-16T05:48:17.084Z,4.33
2018-07-16T05:50:46.842Z,3.73
2018-07-16T05:53:16.561Z,4.53
2018-07-16T05:55:46.452Z,4.10
2018-07-16T05:58:16.264Z,4.47
2018-07-16T06:00:46.229Z,4.40
2018-07-16T06:03:16.157Z,4.53
2018-07-16T06:05:45.950Z,4.50
2018-07-16T06:08:15.756Z,4.13
2018-07-16T06:10:45.676Z,3.90
2018-07-16T06:13:15.447Z,4.00
2018-07-16T06:15:45.281Z,4.50
2018-07-16T06:18:15.075Z,4.23
2018-07-16T06:20:44.847Z,4.50
2018-07-16T06:23:14.624Z,4.23
2018-07-16T06:25:44.461Z,3.70
2018-07-16T06:28:14.437Z,3.80
2018-07-16T06:30:44.514Z,3.50
2018-07-16T06:33:14.475Z,3.60
2018-07-16T06:35:44.277Z,3.90
2018-07-16T06:38:14.059Z,3.50
2018-07-16T06:40:43.993Z,3.93
2018-07-16T06:43:13.815Z,3.50
2018-07-16T06:45:43.506Z,4.30
2018-07-16T06:48:13.287Z,3.63
2018-07-16T06:50:43.298Z,3.37
2018-07-16T06:53:13.175Z,3.27
2018-07-16T06:55:43.369Z,3.00
2018-07-16T06:58:13.300Z,2.90
2018-07-16T07:00:46.543Z,3.00
2018-07-16T07:03:16.411Z,2.87
2018-07-16T07:05:46.479Z,2.93
2018-07-16T07:08:16.310Z,2.43
2018-07-16T07:10:46.268Z,2.70
2018-07-16T07:13:16.126Z,2.70
2018-07-16T07:15:46.179Z,2.80
2018-07-16T07:18:16.011Z,2.53
2018-07-16T07:20:46.577Z,2.70
2018-07-16T07:23:17.356Z,3.10
2018-07-16T07:25:47.296Z,2.60
2018-07-16T07:28:17.108Z,2.43
2018-07-16T07:30:47.066Z,2.30
2018-07-16T07:33:16.906Z,2.60
2018-07-16T07:35:47.017Z,2.57
2018-07-16T07:38:16.703Z,2.53
2018-07-16T07:40:46.706Z,2.60
2018-07-16T07:43:21.237Z,2.60
2018-07-16T07:46:01.034Z,2.57
2018-07-16T07:48:31.899Z,2.57
2018-07-16T07:51:03.401Z,2.10
2018-07-16T07:53:35.540Z,2.67
2018-07-16T07:56:05.611Z,2.57
2018-07-16T07:58:35.451Z,2.60
2018-07-16T08:01:05.289Z,2.67
2018-07-16T08:03:37.221Z,2.40
2018-07-16T08:06:08.160Z,2.40
2018-07-16T08:08:38.502Z,2.87
2018-07-16T08:11:08.234Z,3.00
2018-07-16T08:13:38.310Z,3.07
2018-07-16T08:16:08.234Z,2.70
2018-07-16T08:18:38.402Z,2.63
2018-07-16T08:21:08.957Z,2.43
2018-07-16T08:23:38.678Z,2.60
2018-07-16T08:26:08.756Z,2.63
2018-07-16T08:28:38.952Z,2.80
2018-07-16T08:31:09.085Z,2.80
2018-07-16T08:33:39.252Z,3.50
2018-07-16T08:36:09.399Z,3.03
2018-07-16T08:38:39.073Z,3.10
2018-07-16T08:41:09.243Z,3.00
2018-07-16T08:43:38.884Z,3.53
2018-07-16T08:46:09.101Z,3.07
2018-07-16T08:48:39.034Z,3.00
2018-07-16T08:51:09.313Z,3.07
2018-07-16T08:53:39.102Z,3.40
2018-07-16T08:56:09.349Z,3.83
2018-07-16T08:58:41.784Z,3.30
2018-07-16T09:01:15.948Z,3.57
2018-07-16T09:03:48.111Z,3.03
2018-07-16T09:06:17.634Z,2.93
2018-07-16T09:08:47.532Z,2.93
2018-07-16T09:11:17.029Z,3.30
2018-07-16T09:14:12.392Z,3.57
2018-07-16T09:16:42.235Z,3.90
2018-07-16T09:19:12.222Z,3.43
2018-07-16T09:24:41.451Z,3.60
2018-07-16T09:27:11.343Z,2.63
2018-07-16T09:29:47.193Z,2.10
2018-07-16T09:32:18.569Z,2.57
2018-07-16T09:34:48.415Z,2.53
2018-07-16T09:37:18.365Z,2.70
2018-07-16T09:39:48.221Z,2.30
2018-07-16T09:42:18.143Z,2.27
2018-07-16T09:44:48.105Z,1.97
2018-07-16T09:47:17.817Z,2.00
2018-07-16T09:49:47.356Z,2.00
2018-07-16T09:52:17.193Z,2.27
2018-07-16T09:54:47.169Z,1.87
2018-07-16T09:57:18.141Z,1.50
2018-07-16T09:59:53.619Z,2.20
2018-07-16T10:02:27.868Z,2.10
2018-07-16T10:04:57.778Z,2.10
2018-07-16T10:07:28.256Z,2.33
2018-07-16T10:09:58.623Z,2.23
2018-07-16T10:12:28.740Z,2.00
2018-07-16T10:14:59.216Z,2.43
2018-07-16T10:17:30.626Z,2.10
2018-07-16T10:20:00.474Z,1.80
2018-07-16T10:22:30.617Z,2.10
2018-07-16T10:25:00.519Z,2.33
2018-07-16T10:27:30.780Z,2.40
2018-07-16T10:30:00.771Z,2.03
2018-07-16T10:32:30.885Z,2.30
2018-07-16T10:35:03.891Z,2.20
2018-07-16T10:37:38.334Z,1.93
2018-07-16T10:40:08.562Z,2.00
2018-07-16T10:42:38.061Z,1.60
2018-07-16T10:45:10.807Z,2.10
2018-07-16T10:47:40.681Z,1.73
2018-07-16T10:50:10.853Z,1.80
2018-07-16T10:52:40.766Z,1.67
2018-07-16T10:55:10.788Z,1.70
2018-07-16T10:57:40.793Z,2.03
2018-07-16T11:00:10.645Z,2.00
2018-07-16T11:02:40.232Z,1.60
2018-07-16T11:05:10.571Z,1.70
2018-07-16T11:07:40.627Z,1.90
2018-07-16T11:10:10.795Z,1.93
2018-07-16T11:12:41.057Z,1.73
2018-07-16T11:15:11.032Z,1.70
2018-07-16T11:17:41.042Z,1.80
2018-07-16T11:20:11.000Z,2.20
2018-07-16T11:22:41.307Z,2.00
2018-07-16T11:25:11.276Z,1.87
2018-07-16T11:27:41.222Z,2.10
2018-07-16T11:30:11.203Z,1.93
2018-07-16T11:32:41.404Z,1.83
2018-07-16T11:35:11.560Z,2.00
2018-07-16T11:37:41.685Z,1.80
2018-07-16T11:40:11.533Z,1.77
2018-07-16T11:42:41.475Z,1.60
2018-07-16T11:45:11.357Z,1.90
2018-07-16T11:47:41.175Z,1.70
2018-07-16T11:50:11.065Z,2.30
2018-07-16T11:52:40.991Z,2.10
2018-07-16T11:55:12.341Z,1.90
2018-07-16T11:57:42.951Z,2.20
2018-07-16T12:00:13.727Z,2.00
2018-07-16T12:02:43.945Z,2.00
2018-07-16T12:05:14.316Z,2.03
2018-07-16T12:07:44.862Z,2.20
2018-07-16T12:10:14.910Z,2.00
2018-07-16T12:12:47.020Z,1.83
2018-07-16T12:15:17.071Z,2.00
2018-07-16T12:17:46.958Z,1.90
2018-07-16T12:20:17.006Z,1.93
2018-07-16T12:22:47.016Z,1.80
2018-07-16T12:25:17.095Z,2.00
2018-07-16T12:27:47.253Z,1.90
2018-07-16T12:30:17.304Z,2.10
2018-07-16T12:32:47.208Z,1.70
2018-07-16T12:35:17.222Z,1.70
2018-07-16T12:37:47.257Z,1.80
2018-07-16T12:40:17.299Z,1.90
2018-07-16T12:42:47.325Z,1.87
2018-07-16T12:45:17.959Z,1.70
2018-07-16T12:47:48.002Z,1.90
2018-07-16T12:50:17.687Z,1.70
2018-07-16T12:52:47.846Z,2.17
2018-07-16T12:55:17.820Z,1.77
2018-07-16T12:57:47.418Z,1.97
2018-07-16T13:00:16.854Z,1.70
2018-07-16T13:02:46.717Z,1.70
2018-07-16T13:05:17.052Z,1.80
2018-07-16T13:07:46.872Z,1.80
2018-07-16T13:10:16.923Z,2.10
2018-07-16T13:12:47.271Z,1.70
2018-07-16T13:15:17.239Z,2.10
2018-07-16T13:17:47.196Z,1.97
2018-07-16T13:20:17.306Z,2.10
2018-07-16T13:22:47.153Z,1.70
2018-07-16T13:25:17.119Z,1.77
2018-07-16T13:27:46.971Z,2.00
2018-07-16T13:30:16.999Z,1.97
2018-07-16T13:32:46.969Z,2.23
2018-07-16T13:35:17.295Z,1.93
2018-07-16T13:37:47.205Z,1.93
2018-07-16T13:40:17.143Z,1.90
2018-07-16T13:42:46.916Z,2.20
2018-07-16T13:45:16.455Z,2.20
2018-07-16T13:47:46.603Z,2.23
2018-07-16T13:50:16.678Z,2.10
2018-07-16T13:52:46.754Z,2.00
2018-07-16T13:55:16.880Z,2.10
2018-07-16T13:57:46.839Z,2.13
2018-07-16T14:00:16.791Z,2.13
2018-07-16T14:02:46.778Z,2.33
2018-07-16T14:05:16.765Z,2.07
2018-07-16T14:07:46.355Z,2.13
2018-07-16T14:10:16.414Z,2.00
2018-07-16T14:12:46.552Z,2.13
2018-07-16T14:15:16.597Z,2.20
2018-07-16T14:17:46.605Z,2.33
2018-07-16T14:20:17.045Z,2.20
2018-07-16T14:22:47.042Z,2.20
2018-07-16T14:25:16.998Z,2.40
2018-07-16T14:27:48.530Z,2.30
2018-07-16T14:30:18.661Z,2.27
2018-07-16T14:32:49.016Z,2.40
2018-07-16T14:35:21.189Z,2.10
2018-07-16T14:37:51.204Z,2.43
2018-07-16T14:40:20.826Z,2.50
2018-07-16T14:42:50.924Z,2.43
2018-07-16T14:45:20.838Z,2.70
2018-07-16T14:47:50.497Z,2.57
2018-07-16T14:50:20.891Z,2.30
2018-07-16T14:52:51.531Z,2.77
2018-07-16T14:55:21.724Z,2.42
2018-07-16T14:57:52.256Z,2.40
2018-07-16T15:00:22.210Z,2.22
2018-07-16T15:02:52.190Z,2.02
2018-07-16T15:05:22.245Z,2.27
2018-07-16T15:07:53.237Z,2.30
2018-07-16T15:10:23.870Z,2.20
2018-07-16T15:12:54.008Z,2.20
2018-07-16T15:15:23.832Z,1.80
2018-07-16T15:17:53.771Z,1.95
2018-07-16T15:20:23.440Z,2.00
2018-07-16T15:22:53.244Z,1.72
2018-07-16T15:25:23.787Z,2.12
2018-07-16T15:27:53.554Z,1.80
2018-07-16T15:30:25.401Z,1.92
2018-07-16T15:32:55.501Z,1.73
2018-07-16T15:35:25.551Z,1.90
2018-07-16T15:37:55.682Z,1.73
2018-07-16T15:40:27.077Z,1.60
2018-07-16T15:42:57.118Z,1.50
2018-07-16T15:45:27.367Z,1.60
2018-07-16T15:47:57.345Z,1.77
2018-07-16T15:50:27.275Z,1.40
2018-07-16T15:52:57.425Z,1.40
2018-07-16T15:55:27.231Z,1.50
2018-07-16T15:57:57.100Z,1.50
2018-07-16T16:00:26.963Z,1.87
2018-07-16T16:02:57.082Z,1.80
2018-07-16T16:05:26.779Z,1.70
2018-07-16T16:07:56.690Z,1.90
2018-07-16T16:10:26.807Z,2.00
2018-07-16T16:12:56.991Z,1.80
2018-07-16T16:15:29.671Z,1.90
2018-07-16T16:18:00.182Z,2.00
2018-07-16T16:20:29.856Z,1.97
2018-07-16T16:22:59.689Z,2.20
2018-07-16T16:25:29.613Z,1.90
2018-07-16T16:27:59.851Z,1.80
2018-07-16T16:30:30.142Z,1.70
2018-07-16T16:33:00.337Z,1.70
2018-07-16T16:35:30.634Z,1.77
2018-07-16T16:38:01.277Z,2.00
2018-07-16T16:40:31.328Z,2.10
2018-07-16T16:43:01.299Z,1.93
2018-07-16T16:45:31.336Z,1.93
2018-07-16T16:48:01.441Z,1.90
2018-07-16T16:50:30.916Z,2.00
2018-07-16T16:53:01.044Z,1.70
2018-07-16T16:55:31.099Z,1.90
2018-07-16T16:58:00.959Z,2.07
2018-07-16T17:00:30.924Z,2.00
2018-07-16T17:03:00.447Z,2.10
2018-07-16T17:05:30.309Z,1.60
2018-07-16T17:08:00.297Z,1.70
2018-07-16T17:10:30.128Z,1.57
2018-07-16T17:13:00.425Z,1.70
2018-07-16T17:15:30.551Z,1.70
2018-07-16T17:18:00.482Z,2.30
2018-07-16T17:20:30.290Z,1.60
2018-07-16T17:23:00.388Z,2.00
2018-07-16T17:25:30.325Z,1.93
2018-07-16T17:28:00.392Z,1.93
2018-07-16T17:30:30.292Z,2.17
2018-07-16T17:33:00.169Z,2.30
2018-07-16T17:35:30.261Z,1.87
2018-07-16T17:38:00.464Z,2.27
2018-07-16T17:40:30.832Z,1.80
2018-07-16T17:43:04.515Z,2.10
2018-07-16T17:45:36.776Z,3.47
2018-07-16T17:48:07.174Z,2.00
2018-07-16T17:50:37.119Z,2.30
2018-07-16T17:53:06.777Z,2.30
2018-07-16T17:55:36.948Z,2.90
2018-07-16T17:58:07.331Z,2.50
2018-07-16T18:00:37.324Z,1.90
2018-07-16T18:03:07.494Z,4.67
2018-07-16T18:05:37.200Z,2.33
2018-07-16T18:08:07.468Z,2.70
2018-07-16T18:10:37.398Z,1.90
2018-07-16T18:13:07.387Z,2.13
2018-07-16T18:15:37.302Z,2.00
2018-07-16T18:18:07.179Z,2.10
2018-07-16T18:20:37.376Z,2.20
2018-07-16T18:23:07.593Z,1.90
2018-07-16T18:25:37.514Z,2.20
2018-07-16T18:28:07.711Z,2.20
2018-07-16T18:30:37.680Z,2.20
2018-07-16T18:33:07.780Z,2.20
2018-07-16T18:35:37.829Z,2.40
2018-07-16T18:38:07.781Z,2.27
2018-07-16T18:40:37.899Z,1.70
2018-07-16T18:43:08.300Z,1.90
2018-07-16T18:45:38.389Z,2.00
2018-07-16T18:48:08.520Z,1.80
2018-07-16T18:50:38.560Z,1.90
2018-07-16T18:53:08.270Z,1.93
2018-07-16T18:55:37.776Z,1.80
2018-07-16T18:58:07.433Z,1.97
2018-07-16T19:00:37.480Z,1.70
2018-07-16T19:03:07.403Z,1.90
2018-07-16T19:05:37.147Z,2.13
2018-07-16T19:08:07.383Z,2.03
2018-07-16T19:10:37.436Z,1.77
2018-07-16T19:13:07.674Z,1.80
2018-07-16T19:15:37.604Z,1.90
2018-07-16T19:18:07.874Z,1.83
2018-07-16T19:20:37.887Z,1.97
2018-07-16T19:23:08.022Z,1.70
2018-07-16T19:25:38.140Z,2.20
2018-07-16T19:28:14.918Z,2.10
2018-07-16T19:30:45.067Z,1.70
2018-07-16T19:33:15.620Z,2.20
2018-07-16T19:35:45.441Z,1.63
2018-07-16T19:38:15.166Z,1.90
2018-07-16T19:40:45.222Z,1.97
2018-07-16T19:43:15.256Z,2.60
2018-07-16T19:45:45.367Z,2.60
2018-07-16T19:48:15.457Z,2.83
2018-07-16T19:50:45.567Z,2.53
2018-07-16T19:53:15.527Z,3.27
2018-07-16T19:55:45.451Z,3.10
2018-07-16T19:58:15.462Z,2.20
2018-07-16T20:00:45.301Z,2.47
2018-07-16T20:03:15.586Z,2.30
2018-07-16T20:05:45.483Z,2.23
2018-07-16T20:08:15.443Z,2.60
2018-07-16T20:10:45.317Z,2.23
2018-07-16T20:13:15.394Z,2.17
2018-07-16T20:15:45.423Z,1.90
2018-07-16T20:18:15.375Z,2.67
2018-07-16T20:20:55.682Z,2.60
2018-07-16T20:23:25.245Z,2.47
2018-07-16T20:25:56.839Z,2.77
2018-07-16T20:28:27.391Z,2.80
2018-07-16T20:30:57.125Z,2.53
2018-07-16T20:33:27.179Z,2.70
2018-07-16T20:35:57.209Z,2.73
2018-07-16T20:38:27.387Z,2.50
2018-07-16T20:40:57.342Z,2.47
2018-07-16T20:43:27.485Z,2.50
2018-07-16T20:45:56.947Z,2.43
2018-07-16T20:48:27.288Z,2.47
2018-07-16T20:50:57.395Z,2.90
2018-07-16T20:53:27.338Z,2.57
2018-07-16T20:55:57.334Z,2.63
2018-07-16T20:58:27.423Z,2.50
2018-07-16T21:00:57.629Z,2.37
2018-07-16T21:03:27.751Z,2.60
2018-07-16T21:05:57.398Z,2.70
2018-07-16T21:08:27.392Z,2.70
2018-07-16T21:10:57.331Z,2.70
2018-07-16T21:13:27.169Z,2.40
2018-07-16T21:15:57.194Z,2.40
2018-07-16T21:18:27.377Z,2.53
2018-07-16T21:20:57.482Z,2.30
2018-07-16T21:23:27.776Z,2.60
2018-07-16T21:25:57.279Z,2.30
2018-07-16T21:28:26.815Z,2.50
2018-07-16T21:30:56.812Z,2.57
2018-07-16T21:33:26.824Z,2.70
2018-07-16T21:35:56.901Z,2.67
2018-07-16T21:38:26.884Z,2.60
2018-07-16T21:40:56.757Z,3.03
2018-07-16T21:43:26.992Z,2.80
2018-07-16T21:45:56.895Z,2.60
2018-07-16T21:48:26.911Z,2.50
2018-07-16T21:50:57.054Z,2.67
2018-07-16T21:53:26.472Z,3.03
2018-07-16T21:55:56.864Z,2.80
2018-07-16T21:58:26.836Z,2.60
2018-07-16T22:00:56.966Z,2.80
2018-07-16T22:03:27.008Z,2.60
2018-07-16T22:05:56.943Z,2.70
2018-07-16T22:08:26.777Z,2.23
2018-07-16T22:10:56.761Z,2.47
2018-07-16T22:13:26.730Z,2.67
2018-07-16T22:15:57.320Z,2.40
2018-07-16T22:18:27.332Z,2.70
2018-07-16T22:20:57.188Z,2.60
2018-07-16T22:23:27.064Z,2.70
2018-07-16T22:25:57.385Z,2.90
2018-07-16T22:28:27.434Z,2.93
2018-07-16T22:30:57.336Z,2.73
2018-07-16T22:33:26.908Z,2.67
2018-07-16T22:35:56.713Z,2.97
2018-07-16T22:38:26.697Z,3.13
2018-07-16T22:40:56.949Z,2.97
2018-07-16T22:43:26.856Z,2.50
2018-07-16T22:45:56.926Z,3.00
2018-07-16T22:48:27.004Z,2.57
2018-07-16T22:50:57.063Z,2.57
2018-07-16T22:53:26.495Z,2.63
2018-07-16T22:55:56.644Z,2.97
2018-07-16T22:58:26.465Z,3.07
2018-07-16T23:00:56.311Z,3.00
2018-07-16T23:03:26.360Z,3.10
2018-07-16T23:05:56.213Z,3.03
2018-07-16T23:08:26.306Z,3.20
2018-07-16T23:10:56.363Z,2.90
2018-07-16T23:13:26.592Z,3.30
2018-07-16T23:15:56.468Z,2.93
2018-07-16T23:18:26.509Z,3.27
2018-07-16T23:20:56.330Z,2.93
2018-07-16T23:23:26.377Z,2.87
2018-07-16T23:25:56.351Z,3.10
2018-07-16T23:28:26.103Z,3.00
2018-07-16T23:30:55.581Z,3.10
2018-07-16T23:33:25.575Z,3.00
2018-07-16T23:35:55.698Z,3.23
2018-07-16T23:38:25.627Z,3.37
2018-07-16T23:40:55.528Z,3.30
2018-07-16T23:43:25.315Z,2.90
2018-07-16T23:45:55.071Z,3.23
2018-07-16T23:48:24.890Z,3.23
2018-07-16T23:50:54.954Z,3.20
2018-07-16T23:53:24.847Z,3.13
2018-07-16T23:55:54.451Z,3.27
2018-07-16T23:58:24.238Z,3.20
